Time;durP1;ratioP1;P1;durP2;ratioP2;P2;SDS_P1;SDS_P2;PMS_P1;PMS_P2;Temp;Humidity;BMP_temperature;BMP_pressure;BME280_temperature;BME280_humidity;BME280_pressure;Samples;Min_cycle;Max_cycle;Signal;HPM_P1;HPM_P2
2022/06/06 00:02:53;;;;;;;8.20;5.38;;;;;;;16.98;100.00;100519.97;20993037;28;20044;-65
2022/06/06 00:12:55;;;;;;;9.75;5.75;;;;;;;16.93;100.00;100511.34;20992557;28;20189;-65
2022/06/06 00:22:57;;;;;;;10.27;5.85;;;;;;;17.03;100.00;100504.78;20991312;28;20082;-65
2022/06/06 00:43:19;;;;;;;8.98;6.10;;;;;;;16.96;100.00;100484.78;20990506;28;20102;-65
2022/06/06 00:53:46;;;;;;;11.48;7.10;;;;;;;16.93;100.00;100487.56;20988488;28;20143;-65
2022/06/06 01:03:48;;;;;;;11.13;6.63;;;;;;;16.79;100.00;100471.38;20987984;28;20087;-66
2022/06/06 01:13:52;;;;;;;12.48;6.82;;;;;;;16.62;100.00;100462.31;20987434;28;20048;-65
2022/06/06 01:24:15;;;;;;;10.50;7.10;;;;;;;16.63;100.00;100460.53;20986923;28;20118;-65
2022/06/06 01:34:38;;;;;;;13.48;7.50;;;;;;;16.59;100.00;100458.94;20985705;28;20590;-65
2022/06/06 01:45:07;;;;;;;10.55;6.60;;;;;;;16.56;100.00;100453.75;20985348;28;20040;-65
2022/06/06 01:55:09;;;;;;;8.95;6.45;;;;;;;16.48;100.00;100456.72;20984457;28;20060;-65
2022/06/06 02:05:12;;;;;;;11.65;7.28;;;;;;;16.38;100.00;100450.94;20983499;28;20045;-66
2022/06/06 02:15:18;;;;;;;9.55;6.78;;;;;;;16.26;100.00;100451.38;20983988;28;20481;-65
2022/06/06 02:25:20;;;;;;;12.80;7.97;;;;;;;16.16;100.00;100456.16;20983362;28;20052;-66
2022/06/06 02:35:24;;;;;;;11.88;8.00;;;;;;;16.11;100.00;100458.13;20982622;28;20114;-66
2022/06/06 02:45:26;;;;;;;13.67;8.23;;;;;;;16.11;100.00;100446.69;20982610;28;20048;-66
2022/06/06 02:55:27;;;;;;;10.93;7.97;;;;;;;16.18;100.00;100450.81;20982230;28;20420;-66
2022/06/06 03:05:41;;;;;;;9.30;7.13;;;;;;;16.31;100.00;100453.84;20981178;28;20041;-66
2022/06/06 03:26:51;;;;;;;11.82;7.07;;;;;;;16.58;100.00;100447.50;20995953;28;20057;-66
2022/06/06 03:37:15;;;;;;;9.27;6.28;;;;;;;16.53;100.00;100456.50;20994971;28;20048;-66
2022/06/06 03:47:34;;;;;;;8.37;6.37;;;;;;;16.66;100.00;100469.19;20994497;28;20056;-66
2022/06/06 03:57:36;;;;;;;8.57;5.95;;;;;;;16.74;100.00;100468.06;20993482;28;20056;-65
2022/06/06 04:07:37;;;;;;;9.43;6.03;;;;;;;16.82;100.00;100472.13;20992838;28;20056;-66
2022/06/06 04:17:41;;;;;;;9.18;5.80;;;;;;;16.90;100.00;100466.50;20992450;28;20374;-67
2022/06/06 04:27:43;;;;;;;8.37;5.67;;;;;;;17.09;100.00;100469.25;20990308;28;20059;-66
2022/06/06 04:38:01;;;;;;;8.00;5.10;;;;;;;18.54;100.00;100469.88;20989724;28;20340;-65
2022/06/06 04:48:05;;;;;;;8.43;4.82;;;;;;;18.26;100.00;100457.09;20989359;28;20057;-66
2022/06/06 04:58:09;;;;;;;8.97;5.03;;;;;;;17.75;100.00;100466.47;20988729;28;20504;-66
2022/06/06 05:08:42;;;;;;;6.63;4.67;;;;;;;17.83;100.00;100454.63;20987619;28;20049;-68
2022/06/06 05:19:05;;;;;;;10.75;4.95;;;;;;;17.85;100.00;100451.88;20987483;28;20040;-69
2022/06/06 05:29:42;;;;;;;7.35;5.00;;;;;;;17.82;100.00;100457.31;20987175;28;20053;-70
2022/06/06 05:40:02;;;;;;;8.82;5.45;;;;;;;17.78;100.00;100472.50;20983254;28;20045;-70
2022/06/06 05:50:03;;;;;;;7.35;4.45;;;;;;;17.91;100.00;100491.34;20984732;28;20181;-68
2022/06/06 06:00:17;;;;;;;10.98;4.90;;;;;;;18.11;100.00;100514.28;20984149;28;20102;-68
2022/06/06 06:10:21;;;;;;;6.90;3.90;;;;;;;18.17;100.00;100530.78;20983812;28;20056;-67
2022/06/06 06:20:31;;;;;;;6.97;4.70;;;;;;;18.41;100.00;100536.75;20983593;28;20106;-68
2022/06/06 06:30:48;;;;;;;11.05;5.40;;;;;;;18.64;100.00;100553.41;20982635;28;20086;-68
2022/06/06 06:40:55;;;;;;;8.60;5.30;;;;;;;19.05;100.00;100555.91;20982003;28;20060;-67
2022/06/06 06:51:10;;;;;;;8.77;4.90;;;;;;;19.41;100.00;100558.56;20981933;28;20052;-70
2022/06/06 07:01:20;;;;;;;9.13;5.40;;;;;;;19.45;100.00;100561.00;20995790;28;20551;-68
2022/06/06 07:11:40;;;;;;;9.13;5.70;;;;;;;19.02;100.00;100566.66;20941718;28;20063;-68
2022/06/06 07:21:45;;;;;;;7.03;5.22;;;;;;;19.29;100.00;100569.78;20962371;28;20079;-70
2022/06/06 07:32:05;;;;;;;7.55;5.13;;;;;;;19.49;100.00;100567.00;20904960;28;20053;-68
2022/06/06 07:42:07;;;;;;;9.45;5.43;;;;;;;19.83;100.00;100566.16;20957808;28;20476;-67
2022/06/06 07:52:37;;;;;;;7.72;4.68;;;;;;;20.29;98.20;100546.97;20986331;28;20045;-71
2022/06/06 08:03:11;;;;;;;6.53;3.92;;;;;;;20.46;95.66;100528.31;20984746;28;20102;-67
2022/06/06 08:13:38;;;;;;;7.50;4.05;;;;;;;20.99;90.13;100520.00;20955942;28;20045;-68
2022/06/06 08:23:42;;;;;;;6.85;3.40;;;;;;;21.80;86.24;100513.53;20898778;28;20045;-69
2022/06/06 08:33:46;;;;;;;5.70;3.00;;;;;;;22.20;77.57;100491.50;20900139;28;20453;-69
2022/06/06 08:44:00;;;;;;;7.30;2.70;;;;;;;21.85;81.47;100500.81;20900324;28;20045;-70
2022/06/06 08:54:46;;;;;;;5.43;3.30;;;;;;;21.20;81.99;100501.94;20899284;28;20450;-69
2022/06/06 09:05:08;;;;;;;8.38;2.78;;;;;;;21.71;79.85;100486.50;20864043;28;20185;-68
2022/06/06 09:15:47;;;;;;;5.30;2.63;;;;;;;22.05;75.16;100479.09;20941759;28;20511;-69
2022/06/06 09:26:06;;;;;;;4.68;3.00;;;;;;;22.62;74.52;100478.22;20979310;28;20531;-70
2022/06/06 09:36:36;;;;;;;5.55;2.90;;;;;;;23.59;70.48;100468.16;20978014;28;20052;-69
2022/06/06 09:47:10;;;;;;;5.55;2.30;;;;;;;22.53;75.90;100471.66;20978487;28;20511;-70
2022/06/06 10:08:29;;;;;;;5.20;3.22;;;;;;;22.74;76.18;100458.72;20976708;28;19920;-72
2022/06/06 10:19:22;;;;;;;6.93;3.20;;;;;;;23.23;78.29;100460.81;20903248;28;20057;-69
2022/06/06 10:40:20;;;;;;;4.93;2.00;;;;;;;23.91;68.87;100422.34;20909750;28;20436;-71
2022/06/06 11:01:49;;;;;;;3.67;2.50;;;;;;;24.78;63.01;100403.44;20907959;28;20041;-68
2022/06/06 11:12:12;;;;;;;6.13;2.80;;;;;;;24.57;65.30;100413.06;20924528;28;20113;-68
2022/06/06 11:22:22;;;;;;;6.63;2.78;;;;;;;24.81;64.34;100405.03;20989287;28;20103;-69
2022/06/06 11:32:37;;;;;;;5.55;2.30;;;;;;;24.90;61.56;100398.97;20988445;28;20431;-70
2022/06/06 11:43:03;;;;;;;6.30;3.00;;;;;;;24.81;63.15;100389.81;20986954;28;20045;-70
2022/06/06 11:53:39;;;;;;;5.57;2.40;;;;;;;25.64;59.27;100383.47;20986766;28;20116;-68
2022/06/06 12:03:59;;;;;;;3.38;1.90;;;;;;;24.61;60.38;100384.25;20985853;28;20040;-69
2022/06/06 12:14:20;;;;;;;3.42;1.92;;;;;;;23.76;61.71;100393.03;20949378;28;20092;-68
2022/06/06 12:25:07;;;;;;;2.88;1.60;;;;;;;23.24;62.85;100388.63;20900409;28;20047;-68
2022/06/06 12:35:19;;;;;;;3.78;1.92;;;;;;;24.30;61.28;100368.63;20852459;28;20114;-68
2022/06/06 12:45:41;;;;;;;3.42;1.60;;;;;;;24.30;54.80;100352.56;20898326;28;20056;-66
2022/06/06 12:56:17;;;;;;;4.95;1.60;;;;;;;24.21;54.52;100355.91;20898804;28;20075;-66
2022/06/06 13:06:36;;;;;;;4.10;1.42;;;;;;;23.72;55.85;100343.41;20898135;28;20139;-66
2022/06/06 13:17:05;;;;;;;2.55;1.30;;;;;;;24.29;55.86;100332.13;20952943;28;20048;-66
2022/06/06 13:27:29;;;;;;;3.28;1.33;;;;;;;23.28;62.16;100351.84;20977407;28;20053;-66
2022/06/06 13:37:56;;;;;;;5.43;1.77;;;;;;;23.23;61.22;100348.63;20977560;28;20185;-65
2022/06/06 13:48:28;;;;;;;3.65;1.40;;;;;;;23.61;61.02;100334.41;20977690;28;20527;-66
2022/06/06 13:58:49;;;;;;;2.78;1.20;;;;;;;23.29;54.94;100338.41;20977832;28;20110;-65
2022/06/06 14:08:54;;;;;;;4.15;1.25;;;;;;;22.82;53.56;100352.28;20976681;28;20048;-66
2022/06/06 14:19:23;;;;;;;5.05;1.00;;;;;;;22.65;55.26;100355.22;20900438;28;20053;-65
2022/06/06 14:29:27;;;;;;;2.38;0.90;;;;;;;22.94;52.58;100355.97;20889896;28;20083;-66
2022/06/06 14:39:33;;;;;;;4.88;1.67;;;;;;;23.20;52.40;100349.72;20890849;28;20045;-66
2022/06/06 14:49:37;;;;;;;3.55;1.33;;;;;;;23.02;51.00;100330.47;20891834;28;20143;-66
2022/06/06 14:59:50;;;;;;;5.85;1.38;;;;;;;23.01;53.12;100339.44;20891699;28;20052;-65
2022/06/06 15:09:59;;;;;;;3.53;1.20;;;;;;;23.10;55.71;100327.28;20891570;28;20428;-66
2022/06/06 15:20:06;;;;;;;3.75;1.42;;;;;;;22.63;59.71;100346.47;20987247;28;20048;-66
2022/06/06 15:30:22;;;;;;;3.85;1.40;;;;;;;22.60;61.58;100334.19;20987699;28;20067;-67
2022/06/06 15:40:30;;;;;;;3.15;1.38;;;;;;;22.50;64.89;100333.94;20987383;28;20101;-65
2022/06/06 15:50:37;;;;;;;4.78;1.20;;;;;;;22.47;67.42;100323.50;20987611;28;20051;-66
2022/06/06 16:00:49;;;;;;;3.30;1.73;;;;;;;22.36;69.52;100319.81;20986092;28;20511;-65
2022/06/06 16:11:02;;;;;;;3.40;1.33;;;;;;;22.38;69.61;100312.56;20976705;28;20437;-66
2022/06/06 16:21:12;;;;;;;3.15;1.63;;;;;;;22.54;69.05;100305.25;20902860;28;20452;-66
2022/06/06 16:31:32;;;;;;;3.30;1.55;;;;;;;22.64;70.82;100308.16;20899588;28;20048;-66
2022/06/06 16:52:19;;;;;;;3.20;1.60;;;;;;;22.42;72.54;100298.94;20900120;28;20102;-66
2022/06/06 17:02:52;;;;;;;4.85;1.58;;;;;;;22.27;76.77;100300.78;20898711;28;20539;-66
2022/06/06 17:12:57;;;;;;;10.20;4.90;;;;;;;22.38;77.24;100307.25;20922854;28;20052;-68
2022/06/06 17:23:07;;;;;;;3.03;1.80;;;;;;;22.23;76.50;100296.63;20979612;28;20045;-69
2022/06/06 17:33:23;;;;;;;2.15;1.23;;;;;;;22.08;76.14;100288.72;20978535;28;20040;-68
2022/06/06 17:43:32;;;;;;;4.57;1.55;;;;;;;21.93;74.83;100302.09;20977381;28;20090;-67
2022/06/06 17:53:56;;;;;;;4.70;2.25;;;;;;;21.73;74.07;100314.03;20978961;28;20484;-67
2022/06/06 18:04:09;;;;;;;5.15;2.20;;;;;;;21.77;73.52;100310.22;20975980;28;20110;-67
2022/06/06 18:14:42;;;;;;;3.33;1.87;;;;;;;21.50;73.67;100309.28;20939291;28;20049;-67
2022/06/06 18:24:48;;;;;;;2.58;1.33;;;;;;;21.49;71.29;100304.91;20894742;28;20135;-68
2022/06/06 18:34:55;;;;;;;4.25;1.63;;;;;;;21.50;71.17;100304.81;20891959;28;20052;-69
2022/06/06 18:45:15;;;;;;;3.75;1.45;;;;;;;21.23;72.53;100318.03;20892424;28;20057;-71
2022/06/06 18:55:17;;;;;;;4.20;2.00;;;;;;;20.98;75.53;100320.44;20906345;28;20080;-65
2022/06/06 19:05:40;;;;;;;2.72;1.60;;;;;;;20.73;76.00;100327.22;20907731;28;20132;-65
2022/06/06 19:15:42;;;;;;;2.15;1.40;;;;;;;20.41;78.82;100329.09;20956138;28;20113;-65
2022/06/06 19:25:53;;;;;;;2.72;1.50;;;;;;;20.19;82.34;100323.28;20988178;28;20139;-65
2022/06/06 19:35:58;;;;;;;4.35;1.50;;;;;;;19.96;81.80;100316.59;20986780;28;20053;-66
2022/06/06 19:46:09;;;;;;;4.25;2.00;;;;;;;19.83;84.81;100348.28;20986197;28;20041;-65
2022/06/06 19:56:22;;;;;;;4.82;1.90;;;;;;;19.86;84.51;100360.56;20986895;28;20139;-65
2022/06/06 20:06:26;;;;;;;3.83;1.60;;;;;;;19.78;85.13;100362.78;20984827;28;20040;-65
2022/06/06 20:16:31;;;;;;;4.30;1.90;;;;;;;19.70;85.76;100363.22;20929244;28;20061;-65
2022/06/06 20:26:36;;;;;;;4.40;1.70;;;;;;;19.32;89.63;100373.19;20901256;28;20049;-65
2022/06/06 20:36:48;;;;;;;19.38;2.33;;;;;;;19.25;88.51;100366.47;20900082;28;20076;-65
2022/06/06 20:46:55;;;;;;;4.47;1.90;;;;;;;19.07;89.07;100366.50;20900108;28;20489;-65
2022/06/06 20:57:25;;;;;;;4.55;1.67;;;;;;;18.85;92.30;100368.50;20900122;28;20083;-66
2022/06/06 21:07:29;;;;;;;3.03;1.40;;;;;;;18.76;91.54;100363.66;20898922;28;20493;-66
2022/06/06 21:17:31;;;;;;;4.65;1.77;;;;;;;18.73;90.70;100369.13;20961795;28;20053;-66
2022/06/06 21:27:32;;;;;;;2.83;1.52;;;;;;;18.69;89.18;100371.09;20979873;28;20051;-66
2022/06/06 21:37:36;;;;;;;2.67;1.60;;;;;;;18.62;90.53;100362.53;20978934;28;20478;-65
2022/06/06 21:47:38;;;;;;;4.65;1.75;;;;;;;18.57;91.85;100361.03;20978069;28;20488;-65
2022/06/06 21:57:39;;;;;;;3.97;1.55;;;;;;;18.44;92.31;100366.06;20977808;28;20049;-65
2022/06/06 22:07:42;;;;;;;3.33;1.50;;;;;;;18.44;87.50;100379.31;20979966;28;20056;-66
2022/06/06 22:17:44;;;;;;;2.25;1.10;;;;;;;18.42;88.83;100376.75;20984255;28;20048;-66
2022/06/06 22:27:45;;;;;;;2.63;1.20;;;;;;;18.39;89.63;100386.66;20983562;28;20053;-66
2022/06/06 22:37:47;;;;;;;3.80;1.40;;;;;;;18.29;88.57;100374.78;20982668;28;20484;-66
2022/06/06 22:47:49;;;;;;;2.95;1.25;;;;;;;18.12;92.09;100379.09;20983024;28;20048;-66
2022/06/06 22:57:52;;;;;;;2.97;1.33;;;;;;;17.85;97.87;100386.53;20982315;28;20048;-66
2022/06/06 23:07:53;;;;;;;4.65;1.42;;;;;;;17.61;98.87;100393.75;20981314;28;20041;-66
2022/06/06 23:17:55;;;;;;;3.40;1.50;;;;;;;17.55;100.00;100393.19;20981168;28;20048;-67
2022/06/06 23:27:57;;;;;;;2.83;1.50;;;;;;;17.56;100.00;100382.53;20981242;28;20118;-66
2022/06/06 23:38:02;;;;;;;3.33;1.58;;;;;;;17.45;100.00;100387.44;20989211;28;20432;-66
2022/06/06 23:48:09;;;;;;;3.80;1.55;;;;;;;17.35;100.00;100387.00;20995153;28;20040;-67
2022/06/06 23:58:11;;;;;;;3.10;1.63;;;;;;;17.17;100.00;100380.72;20994096;28;20048;-66
